Terminal Aerodrome Forecast
Issued by NWS Jacksonville, FL

Home | Current Version | Previous Version | Text Only | Print | Product List | Glossary On
Versions: 1 2 3 4 5 6 7 8 9 10 11 12 13 14 15 16 17 18 19 20 21 22 23 24 25 26 27
000
FTUS42 KJAX 221600 AAC
TAFGNV
TAF AMD
KGNV 221600Z 2216/2312 VRB05KT P6SM SCT025 SCT250
      TEMPO 2216/2218 BKN025
     FM221800 VRB06KT P6SM VCTS BKN035CB
      TEMPO 2219/2223 VRB15G30KT 3SM TSRA BKN030CB
     FM222300 VRB03KT P6SM BKN050=

USA.gov is the U.S. government's official web portal to all federal, state and local government web resources and services.